Time;durP1;ratioP1;P1;durP2;ratioP2;P2;SDS_P1;SDS_P2;PMS_P1;PMS_P2;Temp;Humidity;BMP_temperature;BMP_pressure;BME280_temperature;BME280_humidity;BME280_pressure;Samples;Min_cycle;Max_cycle;Signal;HPM_P1;HPM_P2
2023/09/22 00:02:11;;;;;;;22.63;12.18;;;18.00;99.90;;;;;;6214898;23;20051;-77
2023/09/22 00:04:39;;;;;;;16.63;8.30;;;17.90;99.90;;;;;;6215782;23;20020;-77
2023/09/22 00:07:07;;;;;;;18.80;9.18;;;17.90;99.90;;;;;;6252440;23;20022;-80
2023/09/22 00:09:34;;;;;;;18.60;9.07;;;17.80;99.90;;;;;;6253893;23;20062;-77
2023/09/22 00:12:02;;;;;;;34.45;22.23;;;17.80;99.90;;;;;;6244440;23;20021;-78
2023/09/22 00:14:29;;;;;;;15.82;8.68;;;17.80;99.90;;;;;;6246480;23;20024;-76
2023/09/22 00:16:58;;;;;;;12.20;8.18;;;17.80;99.90;;;;;;6248426;23;20536;-78
2023/09/22 00:19:25;;;;;;;18.55;8.32;;;17.80;99.90;;;;;;6250325;23;20035;-77
2023/09/22 00:21:55;;;;;;;14.00;7.30;;;17.80;99.90;;;;;;6253082;23;20553;-79
2023/09/22 00:24:23;;;;;;;14.10;7.93;;;17.80;99.90;;;;;;6242791;23;20020;-79
2023/09/22 00:26:50;;;;;;;17.55;7.63;;;17.70;99.90;;;;;;6215959;23;20733;-79
2023/09/22 00:29:18;;;;;;;14.23;7.55;;;17.70;99.90;;;;;;6247586;23;20356;-76
2023/09/22 00:31:45;;;;;;;20.10;8.25;;;17.70;99.90;;;;;;6268425;23;20016;-76
2023/09/22 00:34:14;;;;;;;13.93;7.68;;;17.70;99.90;;;;;;6236091;23;20020;-78
2023/09/22 00:36:42;;;;;;;26.27;7.70;;;17.70;99.90;;;;;;6220150;23;20048;-78
2023/09/22 00:39:09;;;;;;;15.75;7.40;;;17.60;99.90;;;;;;6244166;23;20080;-78
2023/09/22 00:41:37;;;;;;;19.00;7.68;;;17.60;99.90;;;;;;6215082;23;20104;-78
2023/09/22 00:44:05;;;;;;;17.33;7.78;;;17.50;99.90;;;;;;6247710;23;20460;-78
2023/09/22 00:46:33;;;;;;;22.33;7.45;;;17.40;99.90;;;;;;6215043;23;20348;-78
2023/09/22 00:49:01;;;;;;;17.58;7.20;;;17.40;99.90;;;;;;6216130;23;20048;-77
2023/09/22 00:51:30;;;;;;;15.80;7.22;;;17.40;99.90;;;;;;6242355;23;20039;-78
2023/09/22 00:53:57;;;;;;;17.00;7.20;;;17.40;99.90;;;;;;6214618;23;20074;-79
2023/09/22 00:56:25;;;;;;;18.20;7.50;;;17.40;99.90;;;;;;6246628;23;20024;-78
2023/09/22 00:58:53;;;;;;;20.52;7.03;;;17.30;99.90;;;;;;6248521;23;20027;-78
2023/09/22 01:01:21;;;;;;;12.23;6.88;;;17.20;99.90;;;;;;6214887;23;20024;-78
2023/09/22 01:03:51;;;;;;;21.88;8.38;;;17.30;99.90;;;;;;6251847;23;20016;-78
2023/09/22 01:06:18;;;;;;;18.80;7.53;;;17.30;99.90;;;;;;6215316;23;20027;-80
2023/09/22 01:08:47;;;;;;;14.77;7.50;;;17.20;99.90;;;;;;6244811;23;20020;-79
2023/09/22 01:11:15;;;;;;;16.88;7.32;;;17.20;99.90;;;;;;6215259;23;20027;-78
2023/09/22 01:13:42;;;;;;;23.05;8.65;;;17.00;99.90;;;;;;6214740;23;20047;-76
2023/09/22 01:16:10;;;;;;;19.02;7.65;;;17.00;99.90;;;;;;6217260;23;20012;-79
2023/09/22 01:18:37;;;;;;;19.25;7.82;;;16.90;99.90;;;;;;6234879;23;20000;-78
2023/09/22 01:21:05;;;;;;;16.15;7.18;;;16.90;99.90;;;;;;6233625;23;20094;-78
2023/09/22 01:23:35;;;;;;;15.57;7.22;;;16.90;99.90;;;;;;6250527;23;20047;-77
2023/09/22 01:26:03;;;;;;;17.08;7.10;;;17.00;99.90;;;;;;6216538;23;20032;-76
2023/09/22 01:28:30;;;;;;;19.27;7.18;;;17.00;99.90;;;;;;6253678;23;20035;-77
2023/09/22 01:30:59;;;;;;;18.15;7.50;;;16.90;99.90;;;;;;6223914;23;20024;-79
2023/09/22 01:33:27;;;;;;;13.82;6.43;;;16.80;99.90;;;;;;6216490;23;20074;-79
2023/09/22 01:35:55;;;;;;;22.00;6.57;;;16.90;99.90;;;;;;6245595;23;20444;-77
2023/09/22 01:38:23;;;;;;;16.45;7.20;;;16.90;99.90;;;;;;6246974;23;20023;-79
2023/09/22 01:40:53;;;;;;;19.85;7.22;;;17.00;99.90;;;;;;6248611;23;20020;-79
2023/09/22 01:43:20;;;;;;;19.60;6.85;;;16.90;99.90;;;;;;6214208;23;20020;-78
2023/09/22 01:45:48;;;;;;;19.10;6.97;;;16.80;99.90;;;;;;6215787;23;20498;-78
2023/09/22 01:48:16;;;;;;;20.65;7.35;;;16.80;99.90;;;;;;6242811;23;20058;-77
2023/09/22 01:50:43;;;;;;;17.27;6.75;;;16.80;99.90;;;;;;6245632;23;20249;-78
2023/09/22 01:53:11;;;;;;;17.30;7.43;;;16.80;99.90;;;;;;6214747;23;20020;-77
2023/09/22 01:55:40;;;;;;;15.55;6.75;;;16.80;99.90;;;;;;6214943;23;20016;-77
2023/09/22 01:58:10;;;;;;;17.65;6.93;;;16.90;99.90;;;;;;6214376;23;20024;-77
2023/09/22 02:00:38;;;;;;;15.52;6.25;;;16.90;99.90;;;;;;6215335;23;20012;-78
2023/09/22 02:03:06;;;;;;;19.63;6.80;;;16.90;99.90;;;;;;6214081;23;20452;-77
2023/09/22 02:05:34;;;;;;;14.85;6.93;;;16.90;99.90;;;;;;6245463;23;20107;-78
2023/09/22 02:08:01;;;;;;;14.10;6.88;;;16.90;99.90;;;;;;6247605;23;20051;-77
2023/09/22 02:10:29;;;;;;;14.65;6.70;;;16.90;99.90;;;;;;6213920;23;20066;-78
2023/09/22 02:12:56;;;;;;;14.70;6.82;;;16.90;99.90;;;;;;6251618;23;20020;-79
2023/09/22 02:15:25;;;;;;;15.10;6.55;;;16.80;99.90;;;;;;6214740;23;20024;-80
2023/09/22 02:17:53;;;;;;;14.20;6.50;;;16.80;99.90;;;;;;6215025;23;20082;-77
2023/09/22 02:20:23;;;;;;;17.35;6.55;;;16.70;99.90;;;;;;6246245;23;20082;-78
2023/09/22 02:22:51;;;;;;;19.02;7.28;;;16.70;99.90;;;;;;6213268;23;20466;-77
2023/09/22 02:25:20;;;;;;;18.45;7.60;;;16.70;99.90;;;;;;6214944;23;20023;-78
2023/09/22 02:27:49;;;;;;;19.02;6.68;;;16.70;99.90;;;;;;6214212;23;20030;-76
2023/09/22 02:30:17;;;;;;;15.00;6.28;;;16.60;99.90;;;;;;6214576;23;20414;-77
2023/09/22 02:32:47;;;;;;;14.55;6.57;;;16.50;99.90;;;;;;6213362;23;20472;-78
2023/09/22 02:35:16;;;;;;;23.67;7.55;;;16.60;99.90;;;;;;6246527;23;20039;-78
2023/09/22 02:37:43;;;;;;;15.65;6.20;;;16.50;99.90;;;;;;6214221;23;20016;-79
2023/09/22 02:40:13;;;;;;;18.23;6.75;;;16.40;99.90;;;;;;6250871;23;20074;-78
2023/09/22 02:42:41;;;;;;;17.85;6.55;;;16.40;99.90;;;;;;6214581;23;20103;-79
2023/09/22 02:45:11;;;;;;;17.83;6.63;;;16.40;99.90;;;;;;6214733;23;20398;-76
2023/09/22 02:47:39;;;;;;;19.27;7.50;;;16.40;99.90;;;;;;6213999;23;20032;-77
2023/09/22 02:50:09;;;;;;;14.18;6.57;;;16.40;99.90;;;;;;6214178;23;20024;-77
2023/09/22 02:52:38;;;;;;;20.70;6.63;;;16.20;99.90;;;;;;6213777;23;20020;-78
2023/09/22 02:55:07;;;;;;;13.95;7.05;;;16.20;99.90;;;;;;6214658;23;20023;-78
2023/09/22 02:57:36;;;;;;;16.55;7.35;;;16.20;99.90;;;;;;6214585;23;20063;-77
2023/09/22 03:00:11;;;;;;;14.45;6.68;;;16.10;99.90;;;;;;6213769;23;20292;-78
2023/09/22 03:02:39;;;;;;;16.52;6.95;;;16.10;99.90;;;;;;6213067;23;20085;-80
2023/09/22 03:05:10;;;;;;;17.13;7.35;;;16.10;99.90;;;;;;6247667;23;20021;-78
2023/09/22 03:07:40;;;;;;;16.80;6.55;;;16.20;99.90;;;;;;6216189;23;20587;-77
2023/09/22 03:10:10;;;;;;;16.65;7.97;;;16.20;99.90;;;;;;6213625;23;20040;-78
2023/09/22 03:12:39;;;;;;;24.23;11.20;;;16.10;99.90;;;;;;6214075;23;20026;-77
2023/09/22 03:15:09;;;;;;;21.50;12.27;;;16.10;99.90;;;;;;6214059;23;20486;-79
2023/09/22 03:17:38;;;;;;;20.88;11.77;;;16.10;99.90;;;;;;6214118;23;20020;-79
2023/09/22 03:20:07;;;;;;;18.70;10.55;;;16.10;99.90;;;;;;6214719;23;20084;-77
2023/09/22 03:22:38;;;;;;;23.77;11.52;;;16.10;99.90;;;;;;6213092;23;20066;-79
2023/09/22 03:25:08;;;;;;;21.73;12.43;;;16.10;99.90;;;;;;6215247;23;20043;-78
2023/09/22 03:27:36;;;;;;;26.60;13.73;;;16.10;99.90;;;;;;6213719;23;20070;-80
2023/09/22 03:30:06;;;;;;;22.00;10.55;;;16.20;99.90;;;;;;6213945;23;20082;-78
2023/09/22 03:32:33;;;;;;;23.67;11.57;;;16.10;99.90;;;;;;6244115;23;20032;-76
2023/09/22 03:35:06;;;;;;;19.58;10.48;;;16.10;99.90;;;;;;6213629;23;20355;-79
2023/09/22 03:37:33;;;;;;;20.15;9.05;;;16.10;99.90;;;;;;6214072;23;20087;-77
2023/09/22 03:40:09;;;;;;;18.35;8.27;;;16.10;99.90;;;;;;6214840;23;20012;-77
2023/09/22 03:42:38;;;;;;;17.35;7.00;;;16.00;99.90;;;;;;6240098;23;20047;-76
2023/09/22 03:45:07;;;;;;;19.38;7.50;;;15.90;99.90;;;;;;6244453;23;20090;-79
2023/09/22 03:47:34;;;;;;;20.73;7.55;;;15.80;99.90;;;;;;6249676;23;20017;-78
2023/09/22 03:50:03;;;;;;;13.57;7.15;;;15.80;99.90;;;;;;6250483;23;20020;-80
2023/09/22 03:52:32;;;;;;;21.17;7.28;;;15.90;99.90;;;;;;6223691;23;20364;-78
2023/09/22 03:55:00;;;;;;;16.35;6.90;;;15.90;99.90;;;;;;6276526;23;20014;-77
2023/09/22 03:57:29;;;;;;;15.80;7.07;;;15.90;99.90;;;;;;6230483;23;20031;-78
2023/09/22 03:59:56;;;;;;;16.90;8.02;;;15.90;99.90;;;;;;6217418;23;20021;-78
2023/09/22 04:02:27;;;;;;;16.13;7.25;;;15.90;99.90;;;;;;6217276;23;20024;-78
2023/09/22 04:04:55;;;;;;;17.83;7.70;;;15.90;99.90;;;;;;6228568;23;20043;-78
2023/09/22 04:07:22;;;;;;;14.02;6.85;;;15.90;99.90;;;;;;6238041;23;20614;-80
2023/09/22 04:09:50;;;;;;;17.50;7.97;;;15.90;99.90;;;;;;6229618;23;20008;-78
2023/09/22 04:12:17;;;;;;;13.93;7.00;;;16.00;99.90;;;;;;6215306;23;20032;-79
2023/09/22 04:14:46;;;;;;;16.13;6.90;;;15.80;99.90;;;;;;6215682;23;20028;-78
2023/09/22 04:17:14;;;;;;;17.52;6.60;;;15.80;99.90;;;;;;6248445;23;20020;-77
2023/09/22 04:19:42;;;;;;;14.25;6.18;;;15.80;99.90;;;;;;6250335;23;20031;-79
2023/09/22 04:22:11;;;;;;;17.30;7.45;;;15.90;99.90;;;;;;6251731;23;20034;-79
2023/09/22 04:24:47;;;;;;;17.20;8.02;;;15.90;99.90;;;;;;6253429;23;20016;-79
2023/09/22 04:27:14;;;;;;;20.05;7.68;;;15.80;99.90;;;;;;6243629;23;20016;-78
2023/09/22 04:29:42;;;;;;;20.33;8.50;;;15.70;99.90;;;;;;6246030;23;20020;-76
2023/09/22 04:32:11;;;;;;;23.02;8.95;;;15.70;99.90;;;;;;6214891;23;20028;-77
2023/09/22 04:34:39;;;;;;;22.92;8.35;;;15.70;99.90;;;;;;6250029;23;20383;-78
2023/09/22 04:37:07;;;;;;;27.15;7.85;;;15.80;99.90;;;;;;6251995;23;20087;-77
2023/09/22 04:39:34;;;;;;;54.92;11.75;;;15.80;99.90;;;;;;6253709;23;20433;-76
2023/09/22 04:42:02;;;;;;;24.50;9.73;;;15.80;99.90;;;;;;6214454;23;20028;-78
2023/09/22 04:44:30;;;;;;;29.17;11.13;;;15.90;99.90;;;;;;6246512;23;20020;-78
2023/09/22 04:46:57;;;;;;;23.30;9.15;;;15.90;99.90;;;;;;6248402;23;20352;-78
2023/09/22 04:49:27;;;;;;;24.40;9.10;;;15.80;99.90;;;;;;6215805;23;20023;-78
2023/09/22 04:51:54;;;;;;;19.52;8.65;;;15.80;99.90;;;;;;6252338;23;20040;-79
2023/09/22 04:54:22;;;;;;;22.13;8.93;;;15.80;99.90;;;;;;6243160;23;20020;-78
2023/09/22 04:56:51;;;;;;;19.83;9.68;;;15.90;99.90;;;;;;6215579;23;20020;-77
2023/09/22 04:59:19;;;;;;;20.63;10.27;;;16.00;99.90;;;;;;6247323;23;20539;-78
2023/09/22 05:01:46;;;;;;;18.65;8.98;;;16.10;99.90;;;;;;6215736;23;20020;-79
2023/09/22 05:04:14;;;;;;;22.48;9.43;;;16.20;99.90;;;;;;6251073;23;20012;-79
2023/09/22 05:06:43;;;;;;;22.20;8.35;;;16.10;99.90;;;;;;6253062;23;20070;-79
2023/09/22 05:09:11;;;;;;;21.67;8.38;;;16.40;99.90;;;;;;6215197;23;20016;-79
2023/09/22 05:11:39;;;;;;;21.33;8.52;;;16.50;99.90;;;;;;6214962;23;20024;-77
2023/09/22 05:14:06;;;;;;;27.27;9.57;;;16.60;99.90;;;;;;6247007;23;20637;-77
2023/09/22 05:16:35;;;;;;;18.27;8.13;;;16.70;99.90;;;;;;6215454;23;20019;-79
2023/09/22 05:19:03;;;;;;;18.83;8.23;;;16.80;99.90;;;;;;6252272;23;20020;-80
2023/09/22 05:21:31;;;;;;;19.17;9.25;;;16.90;99.90;;;;;;6242224;23;20444;-79
2023/09/22 05:24:00;;;;;;;27.67;11.45;;;16.90;99.90;;;;;;6214156;23;20022;-78
2023/09/22 05:26:28;;;;;;;17.73;8.45;;;17.10;99.90;;;;;;6214879;23;20027;-79
2023/09/22 05:28:55;;;;;;;24.42;9.55;;;17.30;99.90;;;;;;6214851;23;20016;-79
2023/09/22 05:31:23;;;;;;;23.70;9.55;;;17.40;99.90;;;;;;6250853;23;20468;-80
2023/09/22 05:33:51;;;;;;;23.83;12.27;;;17.60;99.90;;;;;;6214880;23;20020;-78
2023/09/22 05:36:18;;;;;;;32.47;16.17;;;17.90;99.90;;;;;;6214770;23;20399;-77
2023/09/22 05:38:46;;;;;;;23.85;8.65;;;18.00;99.90;;;;;;6214360;23;20032;-78
2023/09/22 05:41:16;;;;;;;23.40;8.07;;;18.20;99.90;;;;;;6246642;23;20038;-77
2023/09/22 05:43:43;;;;;;;18.70;8.45;;;18.20;99.90;;;;;;6214151;23;20043;-79
2023/09/22 05:46:12;;;;;;;25.65;10.20;;;18.40;99.90;;;;;;6250721;23;20095;-77
2023/09/22 05:48:39;;;;;;;16.50;8.73;;;18.60;99.90;;;;;;6215831;23;20040;-78
2023/09/22 05:51:07;;;;;;;22.17;8.60;;;18.60;99.90;;;;;;6243150;23;20020;-78
2023/09/22 05:53:35;;;;;;;24.42;8.68;;;18.70;99.90;;;;;;6244526;23;20024;-77
2023/09/22 05:56:07;;;;;;;20.92;8.20;;;18.70;99.90;;;;;;6248605;23;20121;-80
2023/09/22 05:58:37;;;;;;;21.88;8.00;;;18.70;99.90;;;;;;6249145;23;20264;-78
2023/09/22 06:01:08;;;;;;;21.25;8.23;;;18.80;99.90;;;;;;6215052;23;20466;-77
2023/09/22 06:03:37;;;;;;;24.67;9.57;;;18.90;99.90;;;;;;6241718;23;20111;-79
2023/09/22 06:06:08;;;;;;;22.95;8.40;;;19.20;99.90;;;;;;6245516;23;20020;-77
2023/09/22 06:08:36;;;;;;;21.17;8.93;;;19.50;99.90;;;;;;6245738;23;20044;-78
2023/09/22 06:11:03;;;;;;;25.67;8.57;;;19.60;99.90;;;;;;6214688;23;20035;-78
2023/09/22 06:13:31;;;;;;;17.98;7.63;;;19.50;99.90;;;;;;6214315;23;20045;-77
2023/09/22 06:16:00;;;;;;;23.85;9.45;;;19.50;99.90;;;;;;6215861;23;20016;-79
2023/09/22 06:18:28;;;;;;;37.60;19.10;;;19.60;99.90;;;;;;6241929;23;20035;-79
2023/09/22 06:20:56;;;;;;;19.88;7.35;;;20.00;99.90;;;;;;6215383;23;20067;-78
2023/09/22 06:23:25;;;;;;;22.40;6.80;;;20.10;99.90;;;;;;6214993;23;20032;-77
2023/09/22 06:25:54;;;;;;;20.33;9.20;;;20.10;99.90;;;;;;6216954;23;20062;-77
2023/09/22 06:28:22;;;;;;;23.00;8.15;;;20.10;99.90;;;;;;6222133;23;20030;-78
2023/09/22 06:30:49;;;;;;;16.92;7.55;;;20.10;99.90;;;;;;6269394;23;20052;-77
2023/09/22 06:33:19;;;;;;;20.45;6.97;;;20.00;99.90;;;;;;6217903;23;20103;-76
2023/09/22 06:35:47;;;;;;;53.20;11.43;;;19.80;99.90;;;;;;6245150;23;20440;-78
2023/09/22 06:38:16;;;;;;;21.40;8.23;;;19.70;99.90;;;;;;6246667;23;20054;-77
2023/09/22 06:40:45;;;;;;;21.85;8.95;;;19.80;99.90;;;;;;6249320;23;20070;-77
2023/09/22 06:43:12;;;;;;;22.88;8.05;;;20.00;99.90;;;;;;6214357;23;20451;-77
2023/09/22 06:45:41;;;;;;;20.88;7.05;;;20.10;99.90;;;;;;6215037;23;20254;-79
2023/09/22 06:48:09;;;;;;;20.63;8.02;;;20.20;99.90;;;;;;6215360;23;20035;-81
2023/09/22 06:50:38;;;;;;;24.63;10.25;;;20.40;99.90;;;;;;6245413;23;20069;-82
2023/09/22 06:53:06;;;;;;;31.13;16.13;;;20.60;99.90;;;;;;6214699;23;20032;-82
2023/09/22 06:55:34;;;;;;;20.23;7.40;;;20.90;99.90;;;;;;6214539;23;20463;-80
2023/09/22 06:58:01;;;;;;;21.23;9.15;;;21.30;99.90;;;;;;6253084;23;20034;-77
2023/09/22 07:00:29;;;;;;;23.45;9.10;;;21.70;99.90;;;;;;6241836;23;20020;-79
2023/09/22 07:02:57;;;;;;;39.20;12.68;;;22.10;99.90;;;;;;6214722;23;20028;-79
2023/09/22 07:05:24;;;;;;;21.80;9.57;;;22.40;99.90;;;;;;6215114;23;20028;-79
2023/09/22 07:07:54;;;;;;;23.90;14.30;;;22.70;99.90;;;;;;6249313;23;20026;-76
2023/09/22 07:11:00;;;;;;;25.27;16.58;;;23.00;99.90;;;;;;6215860;23;20416;-85
2023/09/22 07:13:29;;;;;;;27.88;13.35;;;23.40;99.90;;;;;;6214428;23;20020;-79
2023/09/22 07:15:57;;;;;;;24.90;11.30;;;23.60;99.90;;;;;;6252640;23;20084;-79
2023/09/22 07:18:25;;;;;;;30.95;16.33;;;23.80;99.90;;;;;;6243087;23;20024;-78
2023/09/22 07:20:53;;;;;;;27.35;12.82;;;24.00;99.90;;;;;;6244093;23;20196;-79
2023/09/22 07:23:23;;;;;;;23.63;12.50;;;24.30;99.90;;;;;;6214550;23;20020;-80
2023/09/22 07:25:59;;;;;;;29.45;13.68;;;24.20;99.90;;;;;;6215720;23;20448;-80
2023/09/22 07:28:27;;;;;;;28.63;13.07;;;24.30;99.90;;;;;;6217812;23;20035;-80
2023/09/22 07:30:55;;;;;;;28.80;10.15;;;24.50;99.90;;;;;;6219726;23;20369;-80
2023/09/22 07:33:29;;;;;;;22.65;10.15;;;24.70;99.90;;;;;;6217979;23;20034;-78
2023/09/22 07:35:57;;;;;;;21.95;8.85;;;24.90;99.90;;;;;;6248314;23;20207;-79
2023/09/22 07:38:28;;;;;;;25.60;8.70;;;25.10;99.90;;;;;;6259923;23;20024;-79
2023/09/22 07:40:57;;;;;;;26.70;8.50;;;25.10;99.90;;;;;;6261526;23;20012;-78
2023/09/22 07:43:29;;;;;;;25.23;8.52;;;25.30;99.90;;;;;;6216158;23;20383;-79
2023/09/22 07:45:56;;;;;;;29.02;10.02;;;25.50;99.90;;;;;;6254448;23;20425;-78
2023/09/22 07:48:24;;;;;;;26.92;10.57;;;25.50;99.90;;;;;;6216215;23;20534;-79
2023/09/22 07:50:52;;;;;;;24.65;10.38;;;25.70;99.90;;;;;;6246174;23;20424;-77
2023/09/22 07:53:20;;;;;;;30.83;9.32;;;26.00;99.90;;;;;;6216453;23;20086;-78
2023/09/22 07:55:51;;;;;;;25.42;10.80;;;26.20;99.90;;;;;;6220565;23;20044;-80
2023/09/22 07:58:19;;;;;;;21.42;6.65;;;26.40;99.90;;;;;;6220026;23;20028;-79
2023/09/22 08:00:48;;;;;;;26.25;9.75;;;26.40;99.90;;;;;;6220130;23;20023;-79
2023/09/22 08:03:18;;;;;;;24.10;7.18;;;26.50;99.90;;;;;;6216294;23;20697;-78
2023/09/22 08:05:46;;;;;;;27.95;9.15;;;26.60;99.90;;;;;;6246502;23;20329;-81
2023/09/22 08:08:15;;;;;;;25.83;7.53;;;26.80;99.90;;;;;;6217186;23;20522;-78
2023/09/22 08:10:43;;;;;;;25.35;9.73;;;26.90;99.90;;;;;;6216052;23;20028;-80
2023/09/22 08:13:12;;;;;;;25.13;10.80;;;27.00;99.90;;;;;;6252457;23;20058;-80
2023/09/22 08:15:40;;;;;;;22.27;6.97;;;27.10;99.90;;;;;;6217103;23;20020;-79
2023/09/22 08:18:10;;;;;;;23.63;8.13;;;27.20;99.90;;;;;;6216503;23;20074;-79
2023/09/22 08:20:37;;;;;;;24.17;8.05;;;27.30;99.90;;;;;;6246938;23;20032;-78
2023/09/22 08:23:05;;;;;;;24.88;9.88;;;27.40;99.90;;;;;;6248094;23;20099;-80
2023/09/22 08:25:34;;;;;;;22.48;8.02;;;27.50;99.90;;;;;;6250965;23;20657;-79
2023/09/22 08:28:03;;;;;;;22.35;9.48;;;27.50;99.90;;;;;;6217213;23;20436;-78
2023/09/22 08:30:32;;;;;;;23.60;7.32;;;27.60;99.90;;;;;;6215531;23;20466;-78
2023/09/22 08:33:00;;;;;;;19.90;8.10;;;27.60;99.90;;;;;;6216258;23;20090;-80
2023/09/22 08:35:28;;;;;;;26.50;8.93;;;27.70;99.90;;;;;;6215956;23;20026;-79
2023/09/22 08:37:55;;;;;;;22.95;7.45;;;27.80;99.90;;;;;;6215906;23;20020;-79
2023/09/22 08:40:23;;;;;;;22.75;7.43;;;27.80;99.90;;;;;;6215887;23;20031;-78
2023/09/22 08:42:52;;;;;;;25.38;6.82;;;27.80;99.90;;;;;;6215549;23;20077;-78
2023/09/22 08:45:21;;;;;;;19.98;6.85;;;27.70;99.90;;;;;;6244232;23;20035;-81
2023/09/22 08:47:51;;;;;;;20.08;6.35;;;27.60;99.90;;;;;;6215860;23;20021;-80
2023/09/22 08:50:20;;;;;;;24.33;8.30;;;27.70;99.90;;;;;;6248273;23;20044;-78
2023/09/22 08:52:51;;;;;;;24.02;7.57;;;27.80;99.90;;;;;;6215183;23;20028;-78
2023/09/22 08:55:20;;;;;;;27.20;6.45;;;27.80;99.90;;;;;;6251645;23;20079;-80
2023/09/22 08:57:49;;;;;;;23.25;8.00;;;27.90;99.90;;;;;;6216619;23;20058;-79
2023/09/22 09:00:20;;;;;;;20.10;6.32;;;27.80;99.90;;;;;;6256132;23;20050;-79
2023/09/22 09:02:50;;;;;;;22.65;6.90;;;28.00;99.90;;;;;;6270204;23;20026;-80
2023/09/22 09:05:22;;;;;;;29.58;8.50;;;27.80;99.90;;;;;;6241154;23;20024;-79
2023/09/22 09:07:51;;;;;;;30.33;13.57;;;27.90;99.90;;;;;;6252966;23;20083;-78
2023/09/22 09:10:32;;;;;;;20.33;6.38;;;28.10;99.90;;;;;;6216594;23;20066;-79
2023/09/22 09:13:02;;;;;;;20.40;8.82;;;28.10;99.90;;;;;;6253779;23;20012;-78
2023/09/22 09:15:41;;;;;;;23.95;7.32;;;28.10;99.90;;;;;;6243511;23;20494;-80
2023/09/22 09:18:12;;;;;;;25.75;6.70;;;28.20;99.90;;;;;;6215816;23;20023;-79
2023/09/22 09:20:41;;;;;;;22.88;6.85;;;28.20;99.90;;;;;;6216206;23;20085;-80
2023/09/22 09:23:17;;;;;;;24.90;8.35;;;28.20;99.90;;;;;;6215041;23;20024;-81
2023/09/22 09:25:46;;;;;;;30.42;7.57;;;28.20;99.90;;;;;;6215668;23;20048;-80
2023/09/22 09:28:14;;;;;;;20.63;6.80;;;28.30;99.90;;;;;;6216134;23;20027;-79
2023/09/22 09:30:51;;;;;;;27.65;6.80;;;28.30;99.90;;;;;;6253253;23;20095;-80
2023/09/22 09:33:21;;;;;;;18.27;5.82;;;28.50;99.90;;;;;;6215309;23;20127;-80
2023/09/22 09:35:48;;;;;;;25.40;7.13;;;28.60;99.90;;;;;;6215835;23;20024;-80
2023/09/22 09:38:18;;;;;;;20.42;7.30;;;28.60;99.90;;;;;;6215771;23;20046;-80
2023/09/22 09:40:45;;;;;;;23.27;5.85;;;28.50;99.90;;;;;;6216215;23;20119;-79
2023/09/22 09:43:14;;;;;;;27.75;6.75;;;28.50;99.90;;;;;;6215155;23;20012;-81
2023/09/22 09:45:47;;;;;;;23.15;6.97;;;28.50;99.90;;;;;;6252527;23;20554;-79
2023/09/22 09:48:17;;;;;;;21.58;8.27;;;28.60;99.90;;;;;;6216049;23;20391;-78
2023/09/22 09:50:48;;;;;;;24.17;7.70;;;28.80;99.90;;;;;;6215834;23;20487;-78
2023/09/22 09:53:31;;;;;;;21.38;6.80;;;28.90;99.90;;;;;;6215146;23;20028;-79
2023/09/22 09:56:02;;;;;;;27.73;7.63;;;29.00;99.90;;;;;;6215525;23;20027;-80
2023/09/22 09:58:32;;;;;;;20.17;6.60;;;29.20;99.90;;;;;;6253214;23;20024;-79
2023/09/22 10:01:01;;;;;;;19.48;6.40;;;29.30;99.90;;;;;;6217879;23;20078;-80
2023/09/22 10:03:29;;;;;;;17.90;7.13;;;29.30;99.90;;;;;;6216185;23;20168;-81
2023/09/22 10:05:59;;;;;;;19.88;7.45;;;29.40;99.90;;;;;;6216926;23;20092;-80
2023/09/22 10:08:28;;;;;;;21.17;7.78;;;29.40;99.90;;;;;;6216065;23;20368;-79
2023/09/22 10:10:58;;;;;;;19.17;6.10;;;29.60;99.90;;;;;;6250585;23;20016;-78
2023/09/22 10:13:27;;;;;;;21.15;6.85;;;29.60;99.90;;;;;;6215604;23;20012;-80
2023/09/22 10:15:56;;;;;;;21.83;7.22;;;29.60;99.90;;;;;;6216623;23;20016;-80
2023/09/22 10:18:45;;;;;;;25.70;7.45;;;29.50;99.90;;;;;;6216151;23;20047;-81
2023/09/22 10:21:44;;;;;;;21.63;8.07;;;29.40;99.90;;;;;;6245014;23;20110;-79
2023/09/22 10:24:24;;;;;;;24.63;6.75;;;29.20;99.90;;;;;;6215231;23;20032;-79
2023/09/22 10:27:11;;;;;;;24.73;8.45;;;29.10;99.90;;;;;;6244632;23;20066;-79
2023/09/22 10:29:41;;;;;;;19.65;7.63;;;29.10;99.90;;;;;;6244227;23;20313;-81
2023/09/22 10:32:27;;;;;;;19.35;7.03;;;29.40;99.90;;;;;;6214328;23;20065;-78
2023/09/22 10:34:56;;;;;;;20.25;7.65;;;29.50;99.90;;;;;;6249016;23;20031;-81
2023/09/22 10:37:27;;;;;;;18.88;6.57;;;29.80;99.90;;;;;;6214712;23;20024;-79
2023/09/22 10:39:59;;;;;;;17.52;6.70;;;30.00;99.90;;;;;;6253038;23;20376;-80
2023/09/22 10:42:31;;;;;;;20.75;5.78;;;30.10;99.90;;;;;;6214115;23;20028;-80
2023/09/22 10:44:59;;;;;;;17.27;6.90;;;30.00;99.90;;;;;;6243885;23;20028;-79
2023/09/22 10:47:41;;;;;;;28.08;12.90;;;30.10;99.90;;;;;;6215137;23;20024;-79
2023/09/22 10:50:18;;;;;;;26.20;9.38;;;30.30;99.90;;;;;;6214484;23;20024;-78
2023/09/22 10:52:55;;;;;;;24.40;7.50;;;30.40;99.90;;;;;;6248768;23;20242;-80
2023/09/22 10:55:25;;;;;;;26.30;7.30;;;30.40;99.90;;;;;;6214427;23;20039;-78
2023/09/22 10:57:53;;;;;;;24.65;9.07;;;30.40;99.90;;;;;;6216420;23;20329;-79
2023/09/22 11:00:22;;;;;;;28.63;8.60;;;30.30;99.90;;;;;;6242293;23;20031;-80
2023/09/22 11:02:58;;;;;;;28.52;11.32;;;30.30;99.90;;;;;;6216334;23;20335;-81
2023/09/22 11:05:26;;;;;;;19.27;7.80;;;30.30;99.90;;;;;;6218472;23;20384;-78
2023/09/22 11:07:55;;;;;;;24.00;7.50;;;30.40;99.90;;;;;;6253740;23;20092;-80
2023/09/22 11:10:25;;;;;;;25.20;8.32;;;30.60;99.90;;;;;;6217542;23;20039;-79
2023/09/22 11:12:54;;;;;;;21.48;8.68;;;30.90;99.90;;;;;;6218716;23;20020;-78
2023/09/22 11:15:22;;;;;;;22.88;8.10;;;31.30;99.90;;;;;;6221002;23;20020;-80
2023/09/22 11:17:50;;;;;;;28.52;8.00;;;31.60;99.90;;;;;;6222331;23;20020;-80
2023/09/22 11:20:19;;;;;;;23.55;7.82;;;31.90;99.90;;;;;;6219956;23;20079;-79
2023/09/22 11:22:47;;;;;;;24.02;7.97;;;31.70;99.90;;;;;;6219978;23;20024;-81
2023/09/22 11:25:17;;;;;;;21.45;7.40;;;31.70;99.90;;;;;;6220522;23;20267;-79
2023/09/22 11:27:46;;;;;;;23.17;7.63;;;31.80;99.90;;;;;;6257300;23;20087;-78
2023/09/22 11:30:16;;;;;;;22.60;8.27;;;31.90;99.90;;;;;;6217800;23;20098;-77
2023/09/22 11:32:48;;;;;;;28.20;8.00;;;31.80;99.90;;;;;;6247644;23;20024;-79
2023/09/22 11:35:37;;;;;;;20.75;7.32;;;31.20;99.90;;;;;;6231196;23;20028;-78
2023/09/22 11:38:27;;;;;;;25.60;6.15;;;31.20;99.90;;;;;;6237302;23;20031;-77
2023/09/22 11:41:07;;;;;;;20.10;6.47;;;30.80;99.90;;;;;;6251528;23;20356;-80
2023/09/22 11:43:39;;;;;;;22.63;7.00;;;30.90;99.90;;;;;;6216844;23;20435;-78
2023/09/22 11:46:08;;;;;;;25.60;6.53;;;31.00;99.90;;;;;;6254681;23;20012;-79
2023/09/22 11:48:52;;;;;;;20.33;6.53;;;31.10;99.90;;;;;;6217516;23;20343;-79
2023/09/22 11:51:20;;;;;;;19.33;6.25;;;31.00;99.90;;;;;;6217201;23;20032;-80
2023/09/22 11:53:48;;;;;;;17.00;5.95;;;30.80;99.90;;;;;;6202661;23;20028;-78
2023/09/22 11:56:17;;;;;;;21.70;6.68;;;30.80;99.90;;;;;;6248586;23;20352;-79
2023/09/22 11:58:45;;;;;;;26.27;5.90;;;30.70;99.90;;;;;;6215100;23;20031;-78
2023/09/22 12:01:12;;;;;;;19.10;6.03;;;30.70;99.90;;;;;;6216920;23;20478;-78
2023/09/22 12:03:40;;;;;;;18.35;5.65;;;30.70;99.90;;;;;;6254274;23;20187;-81
2023/09/22 12:06:09;;;;;;;23.48;6.93;;;30.70;99.90;;;;;;6217085;23;20058;-79
2023/09/22 12:08:37;;;;;;;25.25;9.25;;;30.80;99.90;;;;;;6246392;23;20020;-78
2023/09/22 12:11:05;;;;;;;18.15;6.93;;;31.10;99.90;;;;;;6215507;23;20099;-78
2023/09/22 12:13:33;;;;;;;17.15;6.47;;;31.20;99.90;;;;;;6250311;23;20039;-82
2023/09/22 12:16:01;;;;;;;17.17;5.80;;;31.40;99.90;;;;;;6215438;23;20066;-77
2023/09/22 12:18:28;;;;;;;16.27;6.22;;;31.60;99.90;;;;;;6242737;23;20048;-78
2023/09/22 12:20:56;;;;;;;22.05;6.28;;;31.60;99.90;;;;;;6243902;23;20375;-79
2023/09/22 12:23:24;;;;;;;17.55;6.13;;;31.70;99.90;;;;;;6214801;23;20027;-77
2023/09/22 12:25:52;;;;;;;17.15;5.68;;;31.70;99.90;;;;;;6251295;23;20021;-79
2023/09/22 12:28:20;;;;;;;19.67;8.43;;;31.50;99.90;;;;;;6233582;23;20039;-81
2023/09/22 12:30:49;;;;;;;15.43;5.93;;;31.50;99.90;;;;;;6273199;23;20012;-80
2023/09/22 12:33:17;;;;;;;22.25;7.43;;;31.40;99.90;;;;;;6226724;23;20036;-80
2023/09/22 12:35:44;;;;;;;19.33;6.13;;;31.60;99.90;;;;;;6215733;23;20321;-80
2023/09/22 12:38:12;;;;;;;54.30;42.00;;;31.70;99.90;;;;;;6216639;23;20019;-81
2023/09/22 12:40:40;;;;;;;19.00;7.45;;;31.70;99.90;;;;;;6250627;23;20097;-79
2023/09/22 12:43:08;;;;;;;24.05;7.68;;;31.60;99.90;;;;;;6252806;23;20031;-80
2023/09/22 12:45:36;;;;;;;21.90;7.00;;;31.60;99.90;;;;;;6217105;23;20532;-79
2023/09/22 12:48:06;;;;;;;22.15;7.35;;;31.60;99.90;;;;;;6244797;23;20020;-80